Time;durP1;ratioP1;P1;durP2;ratioP2;P2;SDS_P1;SDS_P2;PMS_P1;PMS_P2;Temp;Humidity;BMP_temperature;BMP_pressure;BME280_temperature;BME280_humidity;BME280_pressure;Samples;Min_cycle;Max_cycle;Signal;HPM_P1;HPM_P2
2022/05/14 00:01:01;;;;;;;11.07;4.40;;;;;;;13.08;64.46;101987.97;5105643;28;20066;-62
2022/05/14 00:03:29;;;;;;;12.10;4.43;;;;;;;13.03;64.69;101987.91;5091911;28;20028;-61
2022/05/14 00:05:58;;;;;;;10.05;4.03;;;;;;;13.06;64.14;101988.81;5092910;28;20035;-62
2022/05/14 00:08:24;;;;;;;13.05;4.32;;;;;;;13.15;63.44;101991.66;5092726;28;20127;-62
2022/05/14 00:13:35;;;;;;;10.90;3.95;;;;;;;13.33;62.46;101992.03;5093056;28;20074;-62
2022/05/14 00:16:01;;;;;;;12.73;4.18;;;;;;;13.33;61.88;101988.47;5092904;28;20045;-62
2022/05/14 00:18:27;;;;;;;10.48;3.72;;;;;;;13.39;61.88;101989.47;5092855;28;20068;-62
2022/05/14 00:20:52;;;;;;;13.18;4.07;;;;;;;13.30;61.79;101986.66;5092822;28;20016;-61
2022/05/14 00:23:18;;;;;;;10.07;4.00;;;;;;;13.25;62.07;101986.56;5092788;28;20077;-62
2022/05/14 00:25:43;;;;;;;10.02;3.70;;;;;;;13.26;61.38;101993.66;5093035;28;20016;-62
2022/05/14 00:28:09;;;;;;;13.60;3.97;;;;;;;13.33;61.44;101981.41;5092763;28;20028;-62
2022/05/14 00:30:36;;;;;;;9.25;3.80;;;;;;;13.29;61.46;101987.53;5092269;28;20123;-61
2022/05/14 00:33:02;;;;;;;12.30;3.83;;;;;;;13.30;61.33;101984.00;5092099;28;20036;-61
2022/05/14 00:35:27;;;;;;;14.20;3.95;;;;;;;13.25;61.19;101978.59;5092290;28;20130;-60
2022/05/14 00:37:53;;;;;;;14.10;3.97;;;;;;;13.18;61.43;101974.00;5092041;28;20461;-62
2022/05/14 00:40:24;;;;;;;7.45;3.70;;;;;;;13.17;61.30;101969.56;5092459;28;20081;-62
2022/05/14 00:42:50;;;;;;;10.27;3.88;;;;;;;13.14;61.48;101966.84;5092595;28;20024;-62
2022/05/14 00:45:17;;;;;;;11.80;4.00;;;;;;;13.21;60.94;101979.38;5092611;28;20035;-61
2022/05/14 00:47:45;;;;;;;11.52;4.18;;;;;;;13.14;61.24;101980.13;5094091;28;20035;-62
2022/05/14 00:50:25;;;;;;;12.15;4.00;;;;;;;13.14;60.94;101979.22;5096220;28;20024;-62
2022/05/14 00:52:57;;;;;;;10.88;3.85;;;;;;;13.08;61.34;101969.41;5096104;28;20032;-62
2022/05/14 00:55:22;;;;;;;11.98;3.80;;;;;;;13.12;61.66;101973.03;5096381;28;20024;-62
2022/05/14 00:57:49;;;;;;;9.93;3.72;;;;;;;13.03;61.16;101973.75;5096224;28;20491;-61
2022/05/14 01:00:19;;;;;;;11.07;3.75;;;;;;;13.05;61.43;101977.31;5096047;28;20154;-62
2022/05/14 01:02:44;;;;;;;11.25;3.70;;;;;;;12.97;61.61;101977.16;5095972;28;20085;-62
2022/05/14 01:05:12;;;;;;;12.43;3.90;;;;;;;12.99;61.45;101967.47;5095811;28;20099;-61
2022/05/14 01:07:39;;;;;;;13.10;4.22;;;;;;;12.99;61.86;101969.25;5095876;28;20040;-61
2022/05/14 01:10:09;;;;;;;13.40;4.20;;;;;;;12.86;62.25;101973.41;5096156;28;20024;-61
2022/05/14 01:12:35;;;;;;;13.70;4.10;;;;;;;12.79;62.27;101972.38;5095836;28;20056;-61
2022/05/14 01:15:18;;;;;;;11.02;3.97;;;;;;;12.81;62.36;101968.91;5095749;28;20105;-61
2022/05/14 01:17:44;;;;;;;11.70;4.03;;;;;;;12.67;62.81;101968.59;5095525;28;20032;-62
2022/05/14 01:20:10;;;;;;;13.88;4.32;;;;;;;12.59;63.24;101978.16;5095570;28;20028;-62
2022/05/14 01:22:57;;;;;;;11.27;4.47;;;;;;;12.46;64.06;101975.28;5095710;28;20102;-62
2022/05/14 01:28:45;;;;;;;14.23;4.43;;;;;;;12.35;64.83;101970.59;4993811;28;20131;-62
2022/05/14 01:31:10;;;;;;;10.90;4.22;;;;;;;12.40;63.92;101963.63;4993844;28;20476;-62
2022/05/14 01:33:36;;;;;;;10.35;4.20;;;;;;;12.36;64.28;101962.66;4993745;28;20038;-62
2022/05/14 01:36:05;;;;;;;8.73;4.30;;;;;;;12.32;64.33;101966.13;4993728;28;20479;-62
2022/05/14 01:38:30;;;;;;;10.82;4.07;;;;;;;12.22;64.55;101969.44;4993645;28;20399;-61
2022/05/14 01:40:55;;;;;;;12.02;3.92;;;;;;;12.20;64.48;101972.03;4993543;28;20045;-62
2022/05/14 01:43:21;;;;;;;9.35;4.20;;;;;;;12.23;64.64;101973.88;4993657;28;20061;-61
2022/05/14 01:45:46;;;;;;;12.20;4.35;;;;;;;12.21;64.53;101970.31;4993479;28;20038;-61
2022/05/14 01:48:12;;;;;;;10.68;3.92;;;;;;;12.24;64.34;101970.34;4993432;28;20041;-62
2022/05/14 01:50:38;;;;;;;9.63;4.18;;;;;;;12.28;63.83;101972.19;4993482;28;20034;-61
2022/05/14 01:53:03;;;;;;;11.60;3.88;;;;;;;12.25;63.88;101977.47;4993417;28;20520;-62
2022/05/14 01:55:29;;;;;;;8.77;4.03;;;;;;;12.25;64.00;101972.16;4993242;28;20121;-62
2022/05/14 01:57:54;;;;;;;13.65;4.15;;;;;;;12.28;63.31;101985.47;4993233;28;20092;-62
2022/05/14 02:00:21;;;;;;;6.63;3.35;;;;;;;12.26;63.09;101988.09;5091566;28;20409;-62
2022/05/14 02:02:47;;;;;;;11.35;3.95;;;;;;;12.17;63.95;101982.59;5096603;28;20028;-61
2022/05/14 02:05:14;;;;;;;11.30;3.75;;;;;;;12.11;64.07;101981.53;5096927;28;20031;-62
2022/05/14 02:07:39;;;;;;;12.48;3.78;;;;;;;12.09;63.79;101988.56;5094877;28;20052;-62
2022/05/14 02:10:05;;;;;;;13.85;3.55;;;;;;;12.02;64.06;101979.56;5094746;28;20031;-62
2022/05/14 02:12:30;;;;;;;11.43;3.70;;;;;;;11.93;64.14;101980.25;5094466;28;20465;-61
2022/05/14 02:14:56;;;;;;;9.35;3.45;;;;;;;11.94;63.61;101992.63;5094838;28;20016;-61
2022/05/14 02:17:21;;;;;;;9.57;3.63;;;;;;;11.94;63.76;101978.50;5094659;28;20050;-61
2022/05/14 02:19:48;;;;;;;12.40;3.45;;;;;;;11.90;63.60;101977.53;5094695;28;20028;-62
2022/05/14 02:22:13;;;;;;;8.20;3.38;;;;;;;11.91;63.83;101979.34;5094472;28;20473;-62
2022/05/14 02:24:39;;;;;;;9.80;3.15;;;;;;;11.88;63.69;101987.19;5094321;28;20020;-62
2022/05/14 02:27:05;;;;;;;7.82;3.08;;;;;;;11.93;63.73;101987.31;5094323;28;20572;-62
2022/05/14 02:29:50;;;;;;;11.15;3.22;;;;;;;11.93;63.48;101985.56;5094533;28;20024;-62
2022/05/14 02:32:18;;;;;;;11.93;3.30;;;;;;;11.97;63.31;101992.72;5094410;28;20100;-62
2022/05/14 02:34:45;;;;;;;9.30;3.00;;;;;;;12.01;63.04;101993.69;5094259;28;20023;-61
2022/05/14 02:37:10;;;;;;;7.93;3.28;;;;;;;12.08;62.99;101992.09;5094176;28;20024;-62
2022/05/14 02:39:35;;;;;;;12.35;3.60;;;;;;;12.07;63.26;101987.63;5094059;28;20069;-62
2022/05/14 02:42:00;;;;;;;13.05;3.53;;;;;;;12.02;63.25;101991.06;5094104;28;20090;-62
2022/05/14 02:44:26;;;;;;;8.10;3.25;;;;;;;12.02;63.31;101992.81;5093999;28;20024;-62
2022/05/14 02:46:51;;;;;;;9.35;3.30;;;;;;;12.01;63.16;101991.94;5093879;28;20028;-61
2022/05/14 02:49:17;;;;;;;9.05;3.50;;;;;;;11.98;63.16;101999.78;5093898;28;20427;-62
2022/05/14 02:51:42;;;;;;;8.10;3.33;;;;;;;11.94;63.40;102003.22;5093973;28;20062;-62
2022/05/14 02:54:08;;;;;;;8.38;3.20;;;;;;;11.87;63.63;102008.38;5093800;28;20040;-62
2022/05/14 02:56:33;;;;;;;6.30;3.45;;;;;;;11.87;63.26;101997.78;5093743;28;20059;-62
2022/05/14 02:59:07;;;;;;;7.05;3.15;;;;;;;11.75;64.16;101996.56;5093698;28;20423;-62
2022/05/14 03:01:33;;;;;;;8.27;3.20;;;;;;;11.79;63.79;101992.25;5093670;28;20028;-62
2022/05/14 03:03:59;;;;;;;9.90;3.35;;;;;;;11.77;63.68;102000.13;5093667;28;20082;-62
2022/05/14 03:06:24;;;;;;;9.05;3.25;;;;;;;11.78;63.62;101999.31;5093644;28;20069;-62
2022/05/14 03:08:51;;;;;;;10.18;3.30;;;;;;;11.83;63.24;101999.44;5078766;28;20136;-62
2022/05/14 03:11:17;;;;;;;8.85;3.30;;;;;;;11.90;63.59;101997.81;5073193;28;20033;-62
2022/05/14 03:13:44;;;;;;;9.98;3.08;;;;;;;11.95;62.78;101997.09;5073274;28;20021;-61
2022/05/14 03:16:10;;;;;;;8.32;3.17;;;;;;;11.99;63.01;102000.69;5073291;28;20032;-62
2022/05/14 03:18:35;;;;;;;13.77;3.75;;;;;;;11.84;62.87;101995.03;5073250;28;20389;-62
2022/05/14 03:21:00;;;;;;;6.95;3.20;;;;;;;11.78;63.08;101996.66;5073261;28;20489;-62
2022/05/14 03:23:26;;;;;;;7.50;3.10;;;;;;;11.65;63.57;101991.94;5073247;28;20024;-62
2022/05/14 03:25:51;;;;;;;10.85;3.15;;;;;;;11.69;64.14;101990.22;5073089;28;20020;-62
2022/05/14 03:28:17;;;;;;;11.90;3.40;;;;;;;11.61;63.47;101999.75;5073238;28;20036;-62
2022/05/14 03:30:42;;;;;;;11.00;3.28;;;;;;;11.59;63.79;101991.75;5073092;28;20025;-62
2022/05/14 03:33:08;;;;;;;12.75;3.40;;;;;;;11.56;64.02;101996.06;5073055;28;20021;-62
2022/05/14 03:35:34;;;;;;;10.48;3.40;;;;;;;11.52;63.97;101996.03;5073133;28;20065;-62
2022/05/14 03:37:59;;;;;;;7.82;3.28;;;;;;;11.51;64.30;101988.91;5073094;28;20104;-62
2022/05/14 03:40:25;;;;;;;10.90;3.42;;;;;;;11.52;63.98;101988.06;5073292;28;20113;-62
2022/05/14 03:42:50;;;;;;;8.35;3.20;;;;;;;11.55;63.90;101989.88;5073005;28;20060;-62
2022/05/14 03:45:15;;;;;;;10.18;3.50;;;;;;;11.49;63.83;101990.63;5072947;28;20028;-62
2022/05/14 03:47:41;;;;;;;11.27;3.55;;;;;;;11.47;64.45;101987.03;5076853;28;20033;-62
2022/05/14 03:50:06;;;;;;;10.43;3.38;;;;;;;11.39;64.41;101993.00;5076556;28;20058;-62
2022/05/14 03:52:32;;;;;;;8.38;3.60;;;;;;;11.30;64.65;101988.34;5074036;28;20029;-62
2022/05/14 03:54:57;;;;;;;10.75;3.20;;;;;;;11.24;64.98;101986.47;5072548;28;20044;-62
2022/05/14 03:57:26;;;;;;;11.52;3.50;;;;;;;11.26;65.12;101991.78;5072149;28;20024;-62
2022/05/14 03:59:51;;;;;;;8.73;3.20;;;;;;;11.25;64.79;101990.00;5072653;28;20029;-61
2022/05/14 04:02:17;;;;;;;7.88;3.53;;;;;;;11.19;65.55;101990.75;5072412;28;20021;-62
2022/05/14 04:04:43;;;;;;;8.68;3.05;;;;;;;11.11;66.14;101994.03;5072222;28;20028;-62
2022/05/14 04:07:10;;;;;;;7.22;3.60;;;;;;;11.06;66.01;101987.72;5054632;28;20020;-62
2022/05/14 04:09:35;;;;;;;11.60;3.50;;;;;;;10.99;66.38;101994.59;5092710;28;20116;-62
2022/05/14 04:12:00;;;;;;;8.77;3.28;;;;;;;11.07;66.35;101995.69;5092205;28;20028;-62
2022/05/14 04:14:27;;;;;;;7.22;3.67;;;;;;;11.11;65.85;101999.31;5074103;28;20496;-62
2022/05/14 04:16:52;;;;;;;12.90;4.10;;;;;;;11.12;65.90;102003.75;5092369;28;20024;-62
2022/05/14 04:19:20;;;;;;;9.18;3.90;;;;;;;11.10;66.26;101997.53;5092382;28;20027;-62
2022/05/14 04:21:46;;;;;;;10.35;3.47;;;;;;;11.03;66.03;101997.34;5092465;28;20028;-62
2022/05/14 04:24:12;;;;;;;8.50;3.67;;;;;;;11.03;66.26;102001.75;5096116;28;20460;-61
2022/05/14 04:26:38;;;;;;;9.77;3.83;;;;;;;11.03;66.62;101999.09;5096109;28;20033;-61
2022/05/14 04:29:03;;;;;;;5.95;3.40;;;;;;;11.08;66.04;102007.16;5096043;28;20056;-62
2022/05/14 04:31:29;;;;;;;9.48;3.45;;;;;;;11.08;66.04;102007.16;5096077;28;20111;-61
2022/05/14 04:33:54;;;;;;;11.07;3.85;;;;;;;11.06;66.48;102006.25;5095933;28;20099;-62
2022/05/14 04:36:19;;;;;;;8.43;3.70;;;;;;;11.01;66.48;102007.00;5096058;28;20078;-62
2022/05/14 04:38:45;;;;;;;11.60;3.90;;;;;;;10.99;67.28;102000.78;5095725;28;20103;-62
2022/05/14 04:41:10;;;;;;;11.43;3.92;;;;;;;10.99;67.04;102006.06;5095795;28;20071;-62
2022/05/14 04:43:35;;;;;;;12.98;3.80;;;;;;;11.00;67.36;102013.13;5095631;28;20453;-62
2022/05/14 04:46:06;;;;;;;12.05;4.07;;;;;;;11.09;67.10;102009.88;5095698;28;20081;-62
2022/05/14 04:48:31;;;;;;;11.57;3.90;;;;;;;11.14;67.19;102008.25;5095859;28;20489;-62
2022/05/14 04:50:57;;;;;;;11.98;4.15;;;;;;;11.21;66.88;102012.81;5095674;28;20054;-62
2022/05/14 04:53:22;;;;;;;10.18;3.72;;;;;;;11.25;66.92;102004.13;5095615;28;20024;-62
2022/05/14 04:55:49;;;;;;;10.73;4.00;;;;;;;11.29;66.92;102024.50;5095746;28;20066;-62
2022/05/14 04:58:15;;;;;;;17.52;4.63;;;;;;;11.31;66.92;102018.38;5095343;28;20036;-62
2022/05/14 05:00:41;;;;;;;8.45;3.80;;;;;;;11.44;66.60;102021.38;5095369;28;20028;-62
2022/05/14 05:03:22;;;;;;;12.18;3.97;;;;;;;11.54;66.24;102022.50;5095417;28;20027;-62
2022/05/14 05:05:52;;;;;;;11.60;4.10;;;;;;;11.62;66.06;102020.06;5095494;28;20051;-62
2022/05/14 05:08:18;;;;;;;11.77;4.25;;;;;;;11.72;66.02;102022.06;5095083;28;20104;-62
2022/05/14 05:10:44;;;;;;;15.00;4.28;;;;;;;11.79;66.01;102024.03;5095097;28;20382;-63
2022/05/14 05:13:16;;;;;;;10.70;4.20;;;;;;;11.91;66.09;102032.31;5095041;28;20476;-61
2022/05/14 05:15:42;;;;;;;11.20;4.38;;;;;;;12.02;65.40;102030.78;5095233;28;20024;-62
2022/05/14 05:18:08;;;;;;;11.20;4.25;;;;;;;12.12;65.60;102036.31;5095421;28;20169;-62
2022/05/14 05:20:35;;;;;;;13.60;4.65;;;;;;;12.20;65.67;102029.44;5095099;28;20446;-62
2022/05/14 05:23:01;;;;;;;12.35;4.60;;;;;;;12.29;65.46;102034.97;5094924;28;20028;-62
2022/05/14 05:25:27;;;;;;;11.85;5.05;;;;;;;12.27;65.41;102026.06;5095053;28;20086;-62
2022/05/14 05:27:52;;;;;;;9.93;4.45;;;;;;;12.43;65.41;102032.63;5094907;28;20426;-62
2022/05/14 05:30:18;;;;;;;11.93;4.63;;;;;;;12.50;65.59;102037.19;5094862;28;20024;-61
2022/05/14 05:32:43;;;;;;;13.68;4.80;;;;;;;12.69;65.30;102042.03;5095051;28;20109;-61
2022/05/14 05:35:09;;;;;;;13.13;5.10;;;;;;;12.83;64.64;102038.78;5094686;28;20029;-62
2022/05/14 05:37:35;;;;;;;11.07;4.72;;;;;;;12.91;64.61;102045.13;5078440;28;20028;-62
2022/05/14 05:40:01;;;;;;;15.88;5.30;;;;;;;12.96;64.50;102039.03;5095253;28;20055;-62
2022/05/14 05:42:26;;;;;;;14.68;5.50;;;;;;;13.10;64.44;102041.97;5094768;28;20137;-61
2022/05/14 05:44:52;;;;;;;12.15;5.35;;;;;;;13.26;64.19;102049.41;5094599;28;20035;-62
2022/05/14 05:47:17;;;;;;;10.50;5.28;;;;;;;13.40;63.99;102044.34;5094663;28;20495;-62
2022/05/14 05:49:43;;;;;;;12.45;5.50;;;;;;;13.53;63.38;102040.13;5076545;28;20016;-61
2022/05/14 05:52:11;;;;;;;12.02;5.28;;;;;;;13.68;63.00;102039.53;5094459;28;20034;-61
2022/05/14 05:57:32;;;;;;;14.13;5.32;;;;;;;13.86;62.95;102053.13;5094341;28;20039;-61
2022/05/14 05:59:58;;;;;;;16.65;5.60;;;;;;;13.94;62.41;102051.47;5094248;28;20032;-61
2022/05/14 06:02:23;;;;;;;15.98;5.93;;;;;;;14.08;62.56;102046.38;5094351;28;20028;-61
2022/05/14 06:04:48;;;;;;;14.73;5.57;;;;;;;14.20;62.11;102046.56;5075748;28;20503;-61
2022/05/14 06:07:14;;;;;;;13.55;6.15;;;;;;;14.35;62.38;102055.66;5093659;28;20028;-62
2022/05/14 06:09:39;;;;;;;10.98;5.22;;;;;;;14.57;61.38;102059.56;5093891;28;20378;-62
2022/05/14 06:12:06;;;;;;;18.73;6.80;;;;;;;14.75;61.31;102060.69;5094091;28;20054;-62
2022/05/14 06:14:32;;;;;;;16.70;6.65;;;;;;;14.80;61.36;102057.19;5075904;28;20024;-62
2022/05/14 06:16:57;;;;;;;18.38;6.65;;;;;;;14.94;60.62;102050.25;5094001;28;20097;-62
2022/05/14 06:19:22;;;;;;;19.60;6.22;;;;;;;15.03;60.48;102043.31;5094014;28;20028;-62
2022/05/14 06:21:48;;;;;;;15.57;6.10;;;;;;;15.21;59.94;102060.34;5093956;28;20039;-61
2022/05/14 06:24:13;;;;;;;21.48;7.28;;;;;;;15.35;60.54;102057.84;5093970;28;20031;-63
2022/05/14 06:26:39;;;;;;;19.77;6.50;;;;;;;15.53;60.09;102074.00;5093945;28;20491;-63
2022/05/14 06:29:05;;;;;;;14.70;6.63;;;;;;;15.73;59.50;102074.22;5094050;28;20477;-62
2022/05/14 06:31:31;;;;;;;18.98;6.60;;;;;;;15.89;59.30;102075.28;5093663;28;20024;-62
2022/05/14 06:33:56;;;;;;;19.50;7.20;;;;;;;16.00;58.86;102071.78;5093778;28;20059;-62
2022/05/14 06:36:22;;;;;;;14.20;6.68;;;;;;;16.17;58.11;102079.03;5093541;28;20461;-62
2022/05/14 06:38:47;;;;;;;18.17;6.78;;;;;;;16.29;58.35;102087.13;5075347;28;20020;-62
2022/05/14 06:41:14;;;;;;;16.38;6.90;;;;;;;16.43;57.90;102080.09;5093360;28;20434;-62
2022/05/14 06:43:40;;;;;;;20.77;7.43;;;;;;;16.49;57.64;102084.59;5093358;28;20030;-62
2022/05/14 06:46:06;;;;;;;19.27;6.97;;;;;;;16.58;57.29;102089.09;5093148;28;20481;-62
2022/05/14 06:48:31;;;;;;;15.55;6.70;;;;;;;16.76;56.87;102086.56;5093354;28;20031;-62
2022/05/14 06:51:02;;;;;;;21.05;7.32;;;;;;;16.95;56.68;102090.19;5093379;28;20112;-62
2022/05/14 06:53:28;;;;;;;16.90;6.55;;;;;;;17.05;55.60;102078.69;5093378;28;20035;-62
2022/05/14 06:55:57;;;;;;;24.27;7.38;;;;;;;17.17;56.22;102081.41;5093455;28;20051;-62
2022/05/14 06:58:28;;;;;;;23.75;7.13;;;;;;;17.25;55.88;102086.75;5093302;28;20055;-63
2022/05/14 07:00:53;;;;;;;24.35;7.75;;;;;;;17.47;55.13;102079.66;5093502;28;20069;-63
2022/05/14 07:08:48;;;;;;;27.20;8.45;;;;;;;18.24;53.68;102069.94;5091192;28;20054;-62
2022/05/14 07:11:13;;;;;;;18.90;7.40;;;;;;;18.46;53.07;102078.84;5093331;28;20123;-62
2022/05/14 07:13:39;;;;;;;18.25;7.30;;;;;;;18.52;52.86;102082.38;5093043;28;20035;-63
2022/05/14 07:16:05;;;;;;;19.90;7.43;;;;;;;18.76;52.48;102080.56;5093387;28;20024;-62
2022/05/14 07:18:32;;;;;;;15.57;7.30;;;;;;;18.97;52.20;102068.84;5091994;28;20492;-62
2022/05/14 07:20:58;;;;;;;24.80;7.68;;;;;;;19.07;51.40;102075.97;5092091;28;20027;-62
2022/05/14 07:23:23;;;;;;;18.83;7.57;;;;;;;19.26;51.03;102084.81;5092864;28;20028;-62
2022/05/14 07:25:48;;;;;;;18.55;7.47;;;;;;;19.34;50.23;102087.44;5092754;28;20454;-61
2022/05/14 07:28:14;;;;;;;23.08;8.57;;;;;;;19.46;50.49;102090.94;5092444;28;20063;-62
2022/05/14 07:30:39;;;;;;;20.98;7.70;;;;;;;19.62;50.57;102080.16;5092910;28;20016;-61
2022/05/14 07:33:05;;;;;;;16.70;7.72;;;;;;;19.84;49.57;102081.78;5092841;28;20395;-62
2022/05/14 07:35:31;;;;;;;18.48;7.30;;;;;;;19.98;49.40;102076.28;5092555;28;20100;-62
2022/05/14 07:38:01;;;;;;;18.85;7.40;;;;;;;20.08;48.88;102075.28;5092700;28;20035;-62
2022/05/14 07:40:28;;;;;;;22.52;7.40;;;;;;;20.09;48.96;102086.94;5092659;28;20032;-62
2022/05/14 07:43:00;;;;;;;18.73;7.75;;;;;;;20.09;48.25;102084.25;5092787;28;20355;-62
2022/05/14 07:45:32;;;;;;;19.27;7.60;;;;;;;20.42;47.90;102081.22;5092692;28;20110;-62
2022/05/14 07:48:00;;;;;;;24.70;7.73;;;;;;;20.68;47.13;102080.09;5092509;28;20496;-62
2022/05/14 07:50:26;;;;;;;20.27;7.22;;;;;;;20.72;46.79;102077.34;5092318;28;20024;-62
2022/05/14 07:52:54;;;;;;;18.92;7.32;;;;;;;20.54;47.57;102080.25;5092528;28;20039;-62
2022/05/14 07:55:20;;;;;;;19.70;7.60;;;;;;;20.75;47.01;102080.00;5092535;28;20465;-62
2022/05/14 07:57:45;;;;;;;21.67;7.65;;;;;;;20.88;46.63;102077.19;5094306;28;20027;-62
2022/05/14 08:00:12;;;;;;;22.63;8.25;;;;;;;20.91;46.51;102083.41;5096740;28;20028;-62
2022/05/14 08:02:39;;;;;;;20.90;7.38;;;;;;;21.08;46.15;102088.56;5096869;28;20025;-62
2022/05/14 08:05:08;;;;;;;18.13;7.50;;;;;;;21.21;45.63;102081.22;5096458;28;20460;-62
2022/05/14 08:07:33;;;;;;;21.83;7.30;;;;;;;21.44;45.33;102091.69;5097987;28;20028;-62
2022/05/14 08:09:59;;;;;;;22.90;7.70;;;;;;;21.47;45.14;102086.28;5116809;28;20024;-62
2022/05/14 08:12:25;;;;;;;17.10;7.40;;;;;;;21.33;45.20;102081.09;5116604;28;20103;-62
2022/05/14 08:14:50;;;;;;;19.02;7.40;;;;;;;21.53;45.34;102086.16;5116446;28;20193;-62
2022/05/14 08:17:16;;;;;;;18.08;6.78;;;;;;;21.44;44.66;102094.38;5116819;28;20096;-62
2022/05/14 08:19:41;;;;;;;19.42;6.93;;;;;;;21.70;43.40;102084.09;5116402;28;20024;-62
2022/05/14 08:24:52;;;;;;;18.65;7.18;;;;;;;22.32;43.48;102078.63;5116752;28;20042;-62
2022/05/14 08:27:18;;;;;;;20.00;7.10;;;;;;;22.65;42.57;102085.16;5116449;28;20031;-62
2022/05/14 08:29:45;;;;;;;19.65;7.80;;;;;;;22.86;42.05;102082.94;5116495;28;20028;-62
2022/05/14 08:32:10;;;;;;;18.63;7.28;;;;;;;23.12;41.59;102077.91;5116442;28;20028;-62
2022/05/14 08:34:36;;;;;;;20.70;7.72;;;;;;;23.20;40.96;102089.44;5116137;28;20024;-62
2022/05/14 08:37:02;;;;;;;22.67;8.15;;;;;;;23.00;41.23;102072.81;5116426;28;20030;-62
2022/05/14 08:39:28;;;;;;;16.80;7.13;;;;;;;23.16;41.95;102073.34;5116193;28;20388;-62
2022/05/14 08:41:55;;;;;;;21.60;7.10;;;;;;;23.22;41.92;102087.59;5116278;28;20032;-62
2022/05/14 08:44:26;;;;;;;22.02;7.18;;;;;;;23.38;39.86;102092.63;5115843;28;20483;-62
2022/05/14 08:46:55;;;;;;;26.48;7.93;;;;;;;23.28;40.00;102091.97;5097963;28;20028;-62
2022/05/14 08:49:32;;;;;;;22.15;6.93;;;;;;;23.58;40.58;102082.28;5115925;28;20031;-62
2022/05/14 08:51:59;;;;;;;18.23;7.38;;;;;;;23.78;40.00;102087.25;5116047;28;20042;-62
2022/05/14 08:54:26;;;;;;;15.32;7.20;;;;;;;24.09;38.90;102083.75;5116965;28;20061;-62
2022/05/14 08:57:13;;;;;;;23.90;7.75;;;;;;;24.17;39.19;102076.34;5116689;28;20404;-62
2022/05/14 08:59:59;;;;;;;20.92;7.35;;;;;;;24.38;39.52;102074.94;5116061;28;20027;-62
2022/05/14 09:02:44;;;;;;;20.17;7.75;;;;;;;24.53;38.75;102079.00;5116017;28;20388;-62
2022/05/14 09:05:15;;;;;;;23.67;7.65;;;;;;;24.84;38.24;102070.91;5115991;28;20028;-61
2022/05/14 09:07:41;;;;;;;22.98;7.70;;;;;;;24.94;36.88;102072.44;5115273;28;20048;-61
2022/05/14 09:10:18;;;;;;;17.83;7.90;;;;;;;24.65;38.19;102065.16;5116038;28;20023;-62
2022/05/14 09:12:51;;;;;;;20.40;7.30;;;;;;;24.96;37.77;102079.53;5115652;28;20032;-61
2022/05/14 09:15:16;;;;;;;20.10;7.45;;;;;;;25.17;36.85;102071.75;5115877;28;20032;-62
2022/05/14 09:17:42;;;;;;;22.48;7.53;;;;;;;25.42;36.19;102082.72;5115873;28;20036;-62
2022/05/14 09:20:07;;;;;;;19.75;7.57;;;;;;;25.63;35.84;102070.31;5116061;28;20023;-62
2022/05/14 09:22:52;;;;;;;23.15;7.40;;;;;;;25.99;35.88;102068.22;5097393;28;20027;-62
2022/05/14 09:25:20;;;;;;;22.23;7.03;;;;;;;26.30;34.19;102068.06;5115615;28;20102;-62
2022/05/14 09:27:52;;;;;;;20.83;7.20;;;;;;;26.49;34.26;102076.44;5115413;28;20027;-61
2022/05/14 09:30:35;;;;;;;15.98;6.78;;;;;;;26.32;34.75;102076.13;5115591;28;20361;-61
2022/05/14 09:33:02;;;;;;;20.17;6.22;;;;;;;26.47;34.30;102072.91;5115767;28;20091;-61
2022/05/14 09:35:32;;;;;;;24.60;7.15;;;;;;;26.37;34.46;102064.16;5096784;28;20069;-62
2022/05/14 09:38:28;;;;;;;20.50;7.25;;;;;;;26.65;34.64;102058.66;5115285;28;20065;-62
2022/05/14 09:41:06;;;;;;;17.63;5.80;;;;;;;26.69;32.25;102063.03;5032386;28;20088;-62
2022/05/14 09:43:35;;;;;;;21.75;6.57;;;;;;;26.58;32.95;102067.97;5032449;28;20030;-62
2022/05/14 09:46:22;;;;;;;17.80;6.43;;;;;;;26.65;34.43;102058.66;5032180;28;20497;-62
2022/05/14 09:48:51;;;;;;;18.42;6.57;;;;;;;26.79;32.56;102058.16;5032112;28;20041;-61
2022/05/14 09:51:36;;;;;;;14.93;5.93;;;;;;;27.21;32.45;102065.59;5032336;28;20077;-62
2022/05/14 09:54:13;;;;;;;13.32;5.22;;;;;;;27.06;31.90;102055.31;5032412;28;20051;-61
2022/05/14 09:56:44;;;;;;;18.58;5.95;;;;;;;27.17;30.89;102063.97;5032331;28;20120;-62
2022/05/14 09:59:27;;;;;;;17.60;5.80;;;;;;;27.38;30.59;102063.09;5032133;28;20026;-62
2022/05/14 10:02:01;;;;;;;15.90;5.75;;;;;;;27.57;31.35;102060.50;5032295;28;20047;-62
2022/05/14 10:04:41;;;;;;;17.50;5.72;;;;;;;27.56;30.91;102060.59;5032238;28;20057;-61
2022/05/14 10:07:18;;;;;;;20.58;5.40;;;;;;;27.49;30.47;102059.94;5031989;28;20107;-61
2022/05/14 10:10:11;;;;;;;13.88;5.50;;;;;;;27.74;29.39;102067.13;5031820;28;20045;-61
2022/05/14 10:13:11;;;;;;;15.63;4.30;;;;;;;27.89;29.75;102053.78;5031924;28;20112;-62
2022/05/14 10:15:39;;;;;;;15.38;4.93;;;;;;;27.49;28.98;102069.91;4953828;29;20055;-61
2022/05/14 10:18:33;;;;;;;13.60;4.50;;;;;;;27.59;29.88;102066.78;5019068;28;20503;-62
2022/05/14 10:21:07;;;;;;;16.63;4.90;;;;;;;27.40;28.79;102060.31;5031183;28;20036;-62
2022/05/14 10:27:15;;;;;;;20.25;6.22;;;;;;;26.76;30.61;102060.97;5031915;28;20036;-62
2022/05/14 10:30:02;;;;;;;17.33;5.55;;;;;;;26.66;31.23;102054.13;5031512;28;20040;-62
2022/05/14 10:32:32;;;;;;;16.60;5.13;;;;;;;26.89;29.76;102048.69;5031645;28;20500;-62
2022/05/14 10:35:11;;;;;;;13.00;4.97;;;;;;;27.23;29.98;102060.09;5031583;28;20460;-62
2022/05/14 10:37:52;;;;;;;14.10;5.05;;;;;;;27.38;28.71;102060.38;5031454;28;20037;-62
2022/05/14 10:40:36;;;;;;;16.50;5.50;;;;;;;27.67;29.44;102052.91;5031494;28;20037;-62
2022/05/14 10:43:20;;;;;;;11.95;4.95;;;;;;;28.40;29.35;102047.06;5031414;28;20025;-62
2022/05/14 10:45:47;;;;;;;15.57;5.32;;;;;;;28.76;26.39;102056.31;5031296;28;20120;-62
2022/05/14 10:48:46;;;;;;;15.48;5.07;;;;;;;28.88;27.90;102059.34;5031253;28;20113;-62
2022/05/14 10:51:25;;;;;;;11.85;5.13;;;;;;;28.86;26.79;102058.53;5047033;28;20148;-61
2022/05/14 10:53:51;;;;;;;16.15;5.38;;;;;;;28.79;26.45;102040.75;5113844;28;20024;-61
2022/05/14 10:56:27;;;;;;;14.02;5.63;;;;;;;28.72;26.81;102050.13;5113810;28;20035;-62
2022/05/14 10:59:27;;;;;;;17.20;5.10;;;;;;;29.41;26.65;102053.19;5113696;28;20481;-62
2022/05/14 11:01:53;;;;;;;13.90;5.28;;;;;;;29.67;26.89;102053.78;5113700;28;20032;-62
2022/05/14 11:04:27;;;;;;;14.67;5.43;;;;;;;29.99;25.65;102045.81;5113752;28;20092;-62
2022/05/14 11:07:05;;;;;;;15.77;5.68;;;;;;;30.06;25.31;102050.84;5113533;28;20292;-62
2022/05/14 11:09:31;;;;;;;11.98;5.00;;;;;;;30.09;24.90;102041.63;5095327;28;20123;-62
2022/05/14 11:12:01;;;;;;;13.93;5.60;;;;;;;30.13;24.29;102038.66;5113432;28;20106;-63
2022/05/14 11:14:43;;;;;;;16.95;5.85;;;;;;;30.20;25.71;102042.00;5113460;28;20288;-62
2022/05/14 11:17:38;;;;;;;14.07;5.10;;;;;;;30.35;24.72;102048.47;5113460;28;20028;-62
2022/05/14 11:20:04;;;;;;;13.40;5.38;;;;;;;29.97;24.15;102051.31;5113477;28;20035;-63
2022/05/14 11:22:43;;;;;;;16.13;5.60;;;;;;;29.20;25.43;102054.25;5113303;28;20092;-63
2022/05/14 11:25:28;;;;;;;13.85;6.10;;;;;;;29.19;26.55;102045.19;5113573;28;20027;-62
2022/05/14 11:27:59;;;;;;;16.60;5.10;;;;;;;29.14;25.52;102040.94;5112616;28;20452;-62
2022/05/14 11:30:37;;;;;;;13.65;4.88;;;;;;;29.43;25.76;102055.88;5113348;28;20476;-62
2022/05/14 11:33:07;;;;;;;13.75;5.18;;;;;;;29.57;24.53;102045.19;5113123;28;20031;-62
2022/05/14 11:35:38;;;;;;;14.80;5.30;;;;;;;29.77;24.68;102051.50;5113519;28;20088;-62
2022/05/14 11:38:15;;;;;;;13.75;5.05;;;;;;;29.69;24.29;102049.16;5113516;28;20469;-62
2022/05/14 11:40:41;;;;;;;11.43;4.47;;;;;;;29.47;24.02;102052.03;5113217;28;20038;-63
2022/05/14 11:43:21;;;;;;;13.25;4.93;;;;;;;29.24;24.58;102050.41;5113098;28;20019;-62
2022/05/14 11:46:05;;;;;;;12.48;4.65;;;;;;;29.49;24.67;102050.09;5113107;28;20028;-62
2022/05/14 11:48:55;;;;;;;17.58;5.82;;;;;;;28.99;25.34;102050.69;5113110;28;20456;-62